createdAt,value
2022-08-17T00:01:27.452Z,18.35
2022-08-17T00:04:01.607Z,15.70
2022-08-17T00:06:35.940Z,15.57
2022-08-17T00:09:10.190Z,17.50
2022-08-17T00:12:41.414Z,17.45
2022-08-17T00:17:21.858Z,17.45
2022-08-17T00:19:55.833Z,17.05
2022-08-17T00:22:34.789Z,17.05
2022-08-17T00:25:13.750Z,18.75
2022-08-17T00:27:48.152Z,18.17
2022-08-17T00:30:22.346Z,16.90
2022-08-17T00:33:11.986Z,18.67
2022-08-17T00:35:52.192Z,16.67
2022-08-17T00:38:27.828Z,18.80
2022-08-17T00:41:05.735Z,17.85
2022-08-17T00:43:41.926Z,18.42
2022-08-17T00:46:19.543Z,20.48
2022-08-17T00:48:54.966Z,18.58
2022-08-17T00:51:34.074Z,17.70
2022-08-17T00:54:12.469Z,18.98
2022-08-17T00:56:51.322Z,16.02
2022-08-17T00:59:28.326Z,18.02
2022-08-17T01:02:02.844Z,16.73
2022-08-17T01:04:39.031Z,20.95
2022-08-17T01:07:13.928Z,18.80
2022-08-17T01:09:48.792Z,18.85
2022-08-17T01:12:23.270Z,16.73
2022-08-17T01:14:57.286Z,16.48
2022-08-17T01:17:31.436Z,16.85
2022-08-17T01:20:08.167Z,17.58
2022-08-17T01:22:43.636Z,16.95
2022-08-17T01:25:18.616Z,18.00
2022-08-17T01:27:52.677Z,16.55
2022-08-17T01:30:58.066Z,17.90
2022-08-17T01:33:20.938Z,17.75
2022-08-17T01:35:55.074Z,17.35
2022-08-17T01:38:32.075Z,17.13
2022-08-17T01:41:11.430Z,17.70
2022-08-17T01:43:49.259Z,20.45
2022-08-17T01:46:26.157Z,18.02
2022-08-17T01:49:00.997Z,18.92
2022-08-17T01:51:35.849Z,17.77
2022-08-17T01:54:14.846Z,17.63
2022-08-17T01:56:52.264Z,17.05
2022-08-17T01:59:26.242Z,17.40
2022-08-17T02:02:00.694Z,16.08
2022-08-17T02:04:35.347Z,18.25
2022-08-17T02:07:09.442Z,16.83
2022-08-17T02:09:45.889Z,16.70
2022-08-17T02:12:39.090Z,16.05
2022-08-17T02:15:21.278Z,18.08
2022-08-17T02:17:55.566Z,16.05
2022-08-17T02:20:41.895Z,16.58
2022-08-17T02:23:17.197Z,15.98
2022-08-17T02:25:52.650Z,15.93
2022-08-17T02:28:28.522Z,17.95
2022-08-17T02:31:06.677Z,17.40
2022-08-17T02:33:43.660Z,16.05
2022-08-17T02:36:17.858Z,15.95
2022-08-17T02:38:51.851Z,19.00
2022-08-17T02:41:27.781Z,14.10
2022-08-17T02:44:02.011Z,14.90
2022-08-17T02:46:36.324Z,16.33
2022-08-17T02:49:10.699Z,15.85
2022-08-17T02:51:44.732Z,16.48
2022-08-17T02:54:40.103Z,16.10
2022-08-17T02:57:14.347Z,15.40
2022-08-17T02:59:49.162Z,15.13
2022-08-17T03:02:23.302Z,15.45
2022-08-17T03:04:57.330Z,15.93
2022-08-17T03:07:31.931Z,15.70
2022-08-17T03:10:07.387Z,16.42
2022-08-17T03:12:43.879Z,15.13
2022-08-17T03:15:21.068Z,16.17
2022-08-17T03:17:55.342Z,20.80
2022-08-17T03:20:33.631Z,15.18
2022-08-17T03:23:07.882Z,15.98
2022-08-17T03:25:46.595Z,14.45
2022-08-17T03:28:22.567Z,14.93
2022-08-17T03:30:56.569Z,16.42
2022-08-17T03:33:30.712Z,14.98
2022-08-17T03:36:05.127Z,14.25
2022-08-17T03:38:39.581Z,15.73
2022-08-17T03:41:14.145Z,15.75
2022-08-17T03:43:49.477Z,16.45
2022-08-17T03:46:40.417Z,15.40
2022-08-17T03:49:31.622Z,15.30
2022-08-17T03:52:23.372Z,15.32
2022-08-17T03:55:14.854Z,15.57
2022-08-17T03:57:49.185Z,15.85
2022-08-17T04:00:24.629Z,15.82
2022-08-17T04:02:59.315Z,17.20
2022-08-17T04:05:34.555Z,14.90
2022-08-17T04:08:09.173Z,16.50
2022-08-17T04:10:45.233Z,16.52
2022-08-17T04:13:24.257Z,15.20
2022-08-17T04:16:00.993Z,15.85
2022-08-17T04:18:34.907Z,15.20
2022-08-17T04:21:10.598Z,14.70
2022-08-17T04:23:44.605Z,15.82
2022-08-17T04:26:52.288Z,16.00
2022-08-17T04:29:13.216Z,16.13
2022-08-17T04:31:48.656Z,14.63
2022-08-17T04:34:23.136Z,15.93
2022-08-17T04:36:57.046Z,15.65
2022-08-17T04:39:33.861Z,16.48
2022-08-17T04:42:17.221Z,14.98
2022-08-17T04:44:51.203Z,17.83
2022-08-17T04:47:29.582Z,17.95
2022-08-17T04:50:04.251Z,14.65
2022-08-17T04:52:47.108Z,15.82
2022-08-17T04:55:21.166Z,14.43
2022-08-17T04:57:55.438Z,16.30
2022-08-17T05:00:29.463Z,15.95
2022-08-17T05:03:05.934Z,15.13
2022-08-17T05:05:43.278Z,14.77
2022-08-17T05:08:19.593Z,16.08
2022-08-17T05:10:53.911Z,16.17
2022-08-17T05:13:29.968Z,16.58
2022-08-17T05:16:05.425Z,15.35
2022-08-17T05:18:40.921Z,16.20
2022-08-17T05:21:15.523Z,15.07
2022-08-17T05:23:53.938Z,17.17
2022-08-17T05:26:29.449Z,15.38
2022-08-17T05:29:03.491Z,15.80
2022-08-17T05:31:37.545Z,15.02
2022-08-17T05:34:12.933Z,15.68
2022-08-17T05:36:46.847Z,15.70
2022-08-17T05:39:20.762Z,17.40
2022-08-17T05:41:54.694Z,17.33
2022-08-17T05:44:28.639Z,15.00
2022-08-17T05:47:03.500Z,17.70
2022-08-17T05:49:39.864Z,17.83
2022-08-17T05:52:27.767Z,16.00
2022-08-17T05:55:13.743Z,14.52
2022-08-17T05:58:01.250Z,17.30
2022-08-17T06:00:43.855Z,17.00
2022-08-17T06:03:29.839Z,16.50
2022-08-17T06:06:22.330Z,17.13
2022-08-17T06:09:13.144Z,16.75
2022-08-17T06:11:53.565Z,16.80
2022-08-17T06:14:41.078Z,16.20
2022-08-17T06:17:19.826Z,15.50
2022-08-17T06:19:57.317Z,16.27
2022-08-17T06:22:36.176Z,14.82
2022-08-17T06:25:16.318Z,17.27
2022-08-17T06:27:53.552Z,16.42
2022-08-17T06:30:59.271Z,18.80
2022-08-17T06:33:32.330Z,15.13
2022-08-17T06:36:17.827Z,14.30
2022-08-17T06:39:01.130Z,14.70
2022-08-17T06:41:43.189Z,18.98
2022-08-17T06:44:43.237Z,22.45
2022-08-17T06:47:28.144Z,25.40
2022-08-17T06:50:14.847Z,23.40
2022-08-17T06:52:55.827Z,25.48
2022-08-17T06:55:38.293Z,27.70
2022-08-17T06:58:16.697Z,22.20
2022-08-17T07:00:58.501Z,24.70
2022-08-17T07:03:38.113Z,22.58
2022-08-17T07:06:15.976Z,24.48
2022-08-17T07:08:56.958Z,23.92
2022-08-17T07:11:40.813Z,22.17
2022-08-17T07:14:29.513Z,25.60
2022-08-17T07:17:07.986Z,21.13
2022-08-17T07:19:45.771Z,24.63
2022-08-17T07:22:28.051Z,23.45
2022-08-17T07:25:06.705Z,21.52
2022-08-17T07:27:46.034Z,23.15
2022-08-17T07:30:23.462Z,21.02
2022-08-17T07:33:01.537Z,21.75
2022-08-17T07:35:41.217Z,24.48
2022-08-17T07:38:25.415Z,19.65
2022-08-17T07:41:06.391Z,27.55
2022-08-17T07:43:50.117Z,20.80
2022-08-17T07:46:43.411Z,20.95
2022-08-17T07:49:34.074Z,21.48
2022-08-17T07:52:13.408Z,18.35
2022-08-17T07:55:27.992Z,18.75
2022-08-17T07:58:02.190Z,17.73
2022-08-17T08:00:37.646Z,16.00
2022-08-17T08:03:23.672Z,18.05
2022-08-17T08:06:03.150Z,17.00
2022-08-17T08:08:42.435Z,17.50
2022-08-17T08:11:29.438Z,16.85
2022-08-17T08:14:21.968Z,16.42
2022-08-17T08:17:07.436Z,16.02
2022-08-17T08:19:43.526Z,16.15
2022-08-17T08:22:23.999Z,15.57
2022-08-17T08:25:20.234Z,18.38
2022-08-17T08:28:08.047Z,17.92
2022-08-17T08:30:48.712Z,16.08
2022-08-17T08:33:39.610Z,16.35
2022-08-17T08:37:15.726Z,16.15
2022-08-17T08:39:25.306Z,15.07
2022-08-17T08:42:08.739Z,18.38
2022-08-17T08:45:03.579Z,15.38
2022-08-17T08:48:05.158Z,15.57
2022-08-17T08:50:49.560Z,14.93
2022-08-17T08:53:36.747Z,15.25
2022-08-17T08:56:13.964Z,15.88
2022-08-17T08:58:59.355Z,14.50
2022-08-17T09:01:40.700Z,14.07
2022-08-17T09:04:30.263Z,14.75
2022-08-17T09:07:14.252Z,15.15
2022-08-17T09:09:59.287Z,15.30
2022-08-17T09:12:43.967Z,15.75
2022-08-17T09:15:22.389Z,18.80
2022-08-17T09:19:00.122Z,13.88
2022-08-17T09:21:00.911Z,15.30
2022-08-17T09:23:42.287Z,14.38
2022-08-17T09:26:23.022Z,15.18
2022-08-17T09:29:01.668Z,16.25
2022-08-17T09:31:48.770Z,13.90
2022-08-17T09:34:33.057Z,15.48
2022-08-17T09:39:56.217Z,16.33
2022-08-17T09:42:39.038Z,14.55
2022-08-17T09:45:28.232Z,14.10
2022-08-17T09:48:07.510Z,14.27
2022-08-17T09:51:03.585Z,15.93
2022-08-17T09:53:40.934Z,14.27
2022-08-17T09:56:29.381Z,13.80
2022-08-17T09:59:23.423Z,14.02
2022-08-17T10:02:07.444Z,13.90
2022-08-17T10:05:02.795Z,15.02
2022-08-17T10:07:43.332Z,18.02
2022-08-17T10:10:25.096Z,14.07
2022-08-17T10:13:06.773Z,15.65
2022-08-17T10:15:54.671Z,13.35
2022-08-17T10:18:40.027Z,13.45
2022-08-17T10:21:33.951Z,14.85
2022-08-17T10:24:31.960Z,15.68
2022-08-17T10:27:14.200Z,13.63
2022-08-17T10:29:55.298Z,12.43
2022-08-17T10:32:34.306Z,12.23
2022-08-17T10:35:27.091Z,12.07
2022-08-17T10:38:29.836Z,12.20
2022-08-17T10:41:21.095Z,12.20
2022-08-17T10:44:38.353Z,12.20
2022-08-17T10:47:09.364Z,11.95
2022-08-17T10:49:48.030Z,13.07
2022-08-17T10:52:48.843Z,12.45
2022-08-17T10:55:25.910Z,12.43
2022-08-17T10:58:22.083Z,11.95
2022-08-17T11:01:00.328Z,11.70
2022-08-17T11:03:35.821Z,12.20
2022-08-17T11:06:21.679Z,11.23
2022-08-17T11:09:27.725Z,12.82
2022-08-17T11:12:16.453Z,12.57
2022-08-17T11:15:02.332Z,12.93
2022-08-17T11:17:57.687Z,11.65
2022-08-17T11:20:59.793Z,10.75
2022-08-17T11:24:07.292Z,11.23
2022-08-17T11:26:46.899Z,11.65
2022-08-17T11:29:24.991Z,11.00
2022-08-17T11:32:03.812Z,11.10
2022-08-17T11:34:38.833Z,11.38
2022-08-17T11:37:35.466Z,11.27
2022-08-17T11:40:51.575Z,11.95
2022-08-17T11:43:55.706Z,11.18
2022-08-17T11:47:00.113Z,13.98
2022-08-17T11:50:11.449Z,10.10
2022-08-17T11:52:49.713Z,12.98
2022-08-17T11:56:00.767Z,11.25
2022-08-17T11:58:38.578Z,12.23
2022-08-17T12:01:16.167Z,10.93
2022-08-17T12:03:57.104Z,13.45
2022-08-17T12:06:46.119Z,10.55
2022-08-17T12:09:25.044Z,17.55
2022-08-17T12:12:12.909Z,10.45
2022-08-17T12:17:54.563Z,11.32
2022-08-17T12:20:31.292Z,11.40
2022-08-17T12:23:13.871Z,10.93
2022-08-17T12:25:52.911Z,10.05
2022-08-17T12:28:30.029Z,10.73
2022-08-17T12:31:06.001Z,10.90
2022-08-17T12:33:46.199Z,9.70
2022-08-17T12:36:24.669Z,10.30
2022-08-17T12:39:13.944Z,10.82
2022-08-17T12:41:57.380Z,10.73
2022-08-17T12:44:43.010Z,9.75
2022-08-17T12:47:25.211Z,11.10
2022-08-17T12:50:28.249Z,10.57
2022-08-17T12:53:03.817Z,11.30
2022-08-17T12:55:39.073Z,10.90
2022-08-17T12:58:22.351Z,10.73
2022-08-17T13:01:01.505Z,15.43
2022-08-17T13:03:41.066Z,11.60
2022-08-17T13:06:32.422Z,10.75
2022-08-17T13:09:14.711Z,12.98
2022-08-17T13:11:50.628Z,10.82
2022-08-17T13:14:26.509Z,10.65
2022-08-17T13:17:07.336Z,11.00
2022-08-17T13:19:51.537Z,10.27
2022-08-17T13:22:27.235Z,12.43
2022-08-17T13:25:05.635Z,10.43
2022-08-17T13:27:44.486Z,9.50
2022-08-17T13:30:24.277Z,10.63
2022-08-17T13:33:05.022Z,9.40
2022-08-17T13:35:50.250Z,10.35
2022-08-17T13:38:41.185Z,10.82
2022-08-17T13:41:34.566Z,9.93
2022-08-17T13:44:33.483Z,10.35
2022-08-17T13:47:19.821Z,10.02
2022-08-17T13:49:55.419Z,10.38
2022-08-17T13:52:37.983Z,10.00
2022-08-17T13:55:20.121Z,10.27
2022-08-17T13:58:06.571Z,11.20
2022-08-17T14:00:41.441Z,10.15
2022-08-17T14:03:17.062Z,9.98
2022-08-17T14:05:52.330Z,9.80
2022-08-17T14:08:26.627Z,9.65
2022-08-17T14:11:00.809Z,9.80
2022-08-17T14:13:34.904Z,11.57
2022-08-17T14:16:09.165Z,9.45
2022-08-17T14:18:56.087Z,9.30
2022-08-17T14:21:31.630Z,13.10
2022-08-17T14:24:06.218Z,9.68
2022-08-17T14:26:40.297Z,10.50
2022-08-17T14:29:15.301Z,9.82
2022-08-17T14:31:53.327Z,11.35
2022-08-17T14:34:30.154Z,12.05
2022-08-17T14:37:04.283Z,12.77
2022-08-17T14:39:38.298Z,12.95
2022-08-17T14:42:13.034Z,9.85
2022-08-17T14:44:47.043Z,9.05
2022-08-17T14:47:21.133Z,11.27
2022-08-17T14:49:57.000Z,12.68
2022-08-17T14:52:31.214Z,13.43
2022-08-17T14:55:06.685Z,12.13
2022-08-17T14:57:42.304Z,22.05
2022-08-17T15:00:17.687Z,10.73
2022-08-17T15:02:54.949Z,19.98
2022-08-17T15:05:33.789Z,14.40
2022-08-17T15:08:09.224Z,17.13
2022-08-17T15:10:43.214Z,12.30
2022-08-17T15:13:20.661Z,13.27
2022-08-17T15:15:55.222Z,13.63
2022-08-17T15:18:29.668Z,14.48
2022-08-17T15:21:07.550Z,14.30
2022-08-17T15:23:41.857Z,17.63
2022-08-17T15:26:18.522Z,12.27
2022-08-17T15:28:56.780Z,13.60
2022-08-17T15:31:32.399Z,11.15
2022-08-17T15:34:08.046Z,10.93
2022-08-17T15:36:49.377Z,13.48
2022-08-17T15:39:23.641Z,10.38
2022-08-17T15:41:58.745Z,13.18
2022-08-17T15:44:35.159Z,13.55
2022-08-17T15:47:10.155Z,10.20
2022-08-17T15:49:47.523Z,15.75
2022-08-17T15:52:25.799Z,11.90
2022-08-17T15:55:01.613Z,12.25
2022-08-17T15:57:36.290Z,9.48
2022-08-17T16:00:11.790Z,14.57
2022-08-17T16:03:45.049Z,13.80
2022-08-17T16:05:44.026Z,11.80
2022-08-17T16:08:21.673Z,9.77
2022-08-17T16:10:55.965Z,10.23
2022-08-17T16:13:29.998Z,13.60
2022-08-17T16:16:04.734Z,9.82
2022-08-17T16:18:39.853Z,12.15
2022-08-17T16:21:42.908Z,10.38
2022-08-17T16:24:18.651Z,14.05
2022-08-17T16:26:52.705Z,13.70
2022-08-17T16:29:26.805Z,10.00
2022-08-17T16:32:10.003Z,8.73
2022-08-17T16:34:44.444Z,9.53
2022-08-17T16:37:18.690Z,10.63
2022-08-17T16:39:54.688Z,11.02
2022-08-17T16:42:31.041Z,11.52
2022-08-17T16:45:12.041Z,9.55
2022-08-17T16:47:46.447Z,12.90
2022-08-17T16:50:23.635Z,11.30
2022-08-17T16:53:06.605Z,13.05
2022-08-17T16:55:42.711Z,9.35
2022-08-17T16:58:17.275Z,8.95
2022-08-17T17:00:51.285Z,9.20
2022-08-17T17:03:27.416Z,9.45
2022-08-17T17:06:08.522Z,8.95
2022-08-17T17:08:48.567Z,9.77
2022-08-17T17:11:34.218Z,8.38
2022-08-17T17:14:12.179Z,9.93
2022-08-17T17:16:53.722Z,10.75
2022-08-17T17:19:35.158Z,12.02
2022-08-17T17:22:15.269Z,11.50
2022-08-17T17:24:55.971Z,10.57
2022-08-17T17:27:38.543Z,12.40
2022-08-17T17:30:16.761Z,10.25
2022-08-17T17:32:53.787Z,10.73
2022-08-17T17:35:31.942Z,9.88
2022-08-17T17:38:15.647Z,12.88
2022-08-17T17:40:54.740Z,16.10
2022-08-17T17:43:39.808Z,17.27
2022-08-17T17:46:27.675Z,13.40
2022-08-17T17:49:03.078Z,16.70
2022-08-17T17:52:05.269Z,10.52
2022-08-17T17:54:51.461Z,11.90
2022-08-17T17:57:38.017Z,17.38
2022-08-17T18:00:16.308Z,14.25
2022-08-17T18:03:18.902Z,16.27
2022-08-17T18:06:20.003Z,11.00
2022-08-17T18:09:06.242Z,16.20
2022-08-17T18:12:03.612Z,10.52
2022-08-17T18:14:58.322Z,9.95
2022-08-17T18:17:34.229Z,9.80
2022-08-17T18:20:08.731Z,10.70
2022-08-17T18:22:42.668Z,10.80
2022-08-17T18:25:43.714Z,16.60
2022-08-17T18:28:25.897Z,10.82
2022-08-17T18:31:13.028Z,12.10
2022-08-17T18:33:50.242Z,11.65
2022-08-17T18:36:29.383Z,13.15
2022-08-17T18:39:13.348Z,11.23
2022-08-17T18:41:49.172Z,10.10
2022-08-17T18:44:26.647Z,10.95
2022-08-17T18:47:13.698Z,10.77
2022-08-17T18:49:53.803Z,9.23
2022-08-17T18:52:30.860Z,10.43
2022-08-17T18:55:09.981Z,12.52
2022-08-17T18:57:46.601Z,12.52
2022-08-17T19:00:35.626Z,9.73
2022-08-17T19:03:24.543Z,11.50
2022-08-17T19:06:19.263Z,8.88
2022-08-17T19:08:53.280Z,9.93
2022-08-17T19:11:30.820Z,9.52
2022-08-17T19:14:07.961Z,8.05
2022-08-17T19:16:50.412Z,7.85
2022-08-17T19:19:29.714Z,11.57
2022-08-17T19:22:14.595Z,8.70
2022-08-17T19:25:12.244Z,8.40
2022-08-17T19:27:57.800Z,8.98
2022-08-17T19:30:32.946Z,9.73
2022-08-17T19:33:07.056Z,12.90
2022-08-17T19:35:47.909Z,10.73
2022-08-17T19:38:33.938Z,12.32
2022-08-17T19:41:17.569Z,9.18
2022-08-17T19:44:14.057Z,9.80
2022-08-17T19:46:58.403Z,10.35
2022-08-17T19:49:46.844Z,9.50
2022-08-17T19:52:44.523Z,11.52
2022-08-17T19:55:30.947Z,9.25
2022-08-17T19:58:12.898Z,9.68
2022-08-17T20:00:54.130Z,11.68
2022-08-17T20:03:35.463Z,11.32
2022-08-17T20:06:14.089Z,12.90
2022-08-17T20:09:04.543Z,11.40
2022-08-17T20:11:46.426Z,15.13
2022-08-17T20:14:24.962Z,17.27
2022-08-17T20:17:02.630Z,16.38
2022-08-17T20:19:45.267Z,16.13
2022-08-17T20:22:23.918Z,14.68
2022-08-17T20:25:07.660Z,16.35
2022-08-17T20:27:54.501Z,15.10
2022-08-17T20:30:42.043Z,18.25
2022-08-17T20:33:26.718Z,14.40
2022-08-17T20:36:19.648Z,15.45
2022-08-17T20:38:57.277Z,13.85
2022-08-17T20:41:32.480Z,14.50
2022-08-17T20:44:08.389Z,16.55
2022-08-17T20:46:56.819Z,15.75
2022-08-17T20:49:47.347Z,15.05
2022-08-17T20:52:51.783Z,17.02
2022-08-17T20:55:53.199Z,17.38
2022-08-17T20:58:47.609Z,17.83
2022-08-17T21:01:39.093Z,14.07
2022-08-17T21:04:47.576Z,16.67
2022-08-17T21:07:29.324Z,14.27
2022-08-17T21:10:15.521Z,18.17
2022-08-17T21:12:56.936Z,16.35
2022-08-17T21:15:38.039Z,15.82
2022-08-17T21:18:19.482Z,17.55
2022-08-17T21:21:15.407Z,19.58
2022-08-17T21:24:11.903Z,18.50
2022-08-17T21:26:56.513Z,18.70
2022-08-17T21:29:34.046Z,18.45
2022-08-17T21:32:21.810Z,16.17
2022-08-17T21:35:26.965Z,15.82
2022-08-17T21:38:05.306Z,15.88
2022-08-17T21:40:39.558Z,19.50
2022-08-17T21:43:32.674Z,15.60
2022-08-17T21:46:12.170Z,16.38
2022-08-17T21:48:49.462Z,16.02
2022-08-17T21:51:30.888Z,15.73
2022-08-17T21:54:15.398Z,17.88
2022-08-17T21:56:49.920Z,15.98
2022-08-17T21:59:28.615Z,14.27
2022-08-17T22:02:04.206Z,14.75
2022-08-17T22:04:40.253Z,16.02
2022-08-17T22:07:16.131Z,17.33
2022-08-17T22:09:51.391Z,18.60
2022-08-17T22:12:25.632Z,19.65
2022-08-17T22:15:02.386Z,17.75
2022-08-17T22:17:40.451Z,14.95
2022-08-17T22:20:17.417Z,17.83
2022-08-17T22:23:30.321Z,15.02
2022-08-17T22:26:06.187Z,17.67
2022-08-17T22:28:47.187Z,17.35
2022-08-17T22:31:23.676Z,15.52
2022-08-17T22:34:13.980Z,16.13
2022-08-17T22:36:47.980Z,18.75
2022-08-17T22:39:42.163Z,16.75
2022-08-17T22:42:16.776Z,21.17
2022-08-17T22:44:54.781Z,17.77
2022-08-17T22:47:39.028Z,16.25
2022-08-17T22:50:22.567Z,15.38
2022-08-17T22:53:19.381Z,14.85
2022-08-17T22:56:14.505Z,16.35
2022-08-17T22:59:16.052Z,15.38
2022-08-17T23:02:16.114Z,15.68
2022-08-17T23:04:53.131Z,14.85
2022-08-17T23:07:27.118Z,16.00
2022-08-17T23:10:02.366Z,15.57
2022-08-17T23:12:39.996Z,14.73
2022-08-17T23:15:17.805Z,14.82
2022-08-17T23:17:51.848Z,18.33
2022-08-17T23:20:25.854Z,15.00
2022-08-17T23:23:00.913Z,17.38
2022-08-17T23:25:36.569Z,16.42
2022-08-17T23:28:12.569Z,17.80
2022-08-17T23:30:48.628Z,14.38
2022-08-17T23:33:28.023Z,15.50
2022-08-17T23:36:01.992Z,16.25
2022-08-17T23:38:35.989Z,15.93
2022-08-17T23:41:13.152Z,15.18
2022-08-17T23:43:55.329Z,15.25
2022-08-17T23:46:29.275Z,14.32
2022-08-17T23:49:03.471Z,16.83
2022-08-17T23:51:42.745Z,15.15
2022-08-17T23:54:23.927Z,15.05
2022-08-17T23:56:58.018Z,14.90
2022-08-17T23:59:34.276Z,17.63
